Time;durP1;ratioP1;P1;durP2;ratioP2;P2;SDS_P1;SDS_P2;PMS_P1;PMS_P2;Temp;Humidity;BMP_temperature;BMP_pressure;BME280_temperature;BME280_humidity;BME280_pressure;Samples;Min_cycle;Max_cycle;Signal;HPM_P1;HPM_P2
2022/03/27 00:00:44;;;;;;;25.17;14.93;;;;;;;6.04;100.00;101698.13;5047159;28;20025;-82
2022/03/27 00:03:14;;;;;;;24.40;14.55;;;;;;;6.10;100.00;101703.53;5041463;28;20104;-81
2022/03/27 00:05:42;;;;;;;28.30;16.05;;;;;;;6.02;100.00;101705.19;5037544;28;20049;-81
2022/03/27 00:08:13;;;;;;;24.65;15.40;;;;;;;5.59;100.00;101701.97;5039017;28;20536;-81
2022/03/27 00:13:30;;;;;;;35.70;18.13;;;;;;;5.09;100.00;101700.38;5052656;28;20051;-82
2022/03/27 00:16:00;;;;;;;31.08;17.10;;;;;;;5.30;100.00;101709.53;5051098;28;20049;-82
2022/03/27 00:18:26;;;;;;;34.20;19.35;;;;;;;5.22;100.00;101707.66;5050872;28;20036;-81
2022/03/27 00:20:52;;;;;;;32.42;18.00;;;;;;;5.13;100.00;101703.09;5050840;28;20030;-82
2022/03/27 00:23:28;;;;;;;34.75;19.45;;;;;;;4.99;100.00;101700.25;5050221;28;20040;-82
2022/03/27 00:25:56;;;;;;;37.38;18.92;;;;;;;5.10;100.00;101705.69;5049570;28;20029;-82
2022/03/27 00:28:32;;;;;;;36.28;19.38;;;;;;;5.12;100.00;101708.38;5049530;28;20030;-82
2022/03/27 00:31:04;;;;;;;34.25;18.55;;;;;;;5.16;100.00;101702.25;5048100;28;20430;-82
2022/03/27 00:33:31;;;;;;;36.42;19.90;;;;;;;5.06;100.00;101702.97;5047758;28;20505;-82
2022/03/27 00:35:57;;;;;;;36.20;19.25;;;;;;;5.11;100.00;101710.13;5049773;28;20032;-82
2022/03/27 00:38:25;;;;;;;36.78;19.00;;;;;;;5.09;100.00;101705.69;5045995;28;20017;-81
2022/03/27 00:40:52;;;;;;;37.75;18.95;;;;;;;5.06;100.00;101700.31;5037564;28;20522;-81
2022/03/27 00:43:21;;;;;;;40.50;20.38;;;;;;;5.13;100.00;101710.16;5039833;28;20398;-82
2022/03/27 00:45:50;;;;;;;37.80;20.33;;;;;;;5.28;100.00;101705.97;5047316;28;20033;-81
2022/03/27 00:48:22;;;;;;;37.47;19.83;;;;;;;5.32;100.00;101702.50;5047546;28;20039;-82
2022/03/27 00:50:51;;;;;;;34.83;19.05;;;;;;;5.41;100.00;101696.44;5046552;28;20088;-82
2022/03/27 00:53:17;;;;;;;37.20;19.80;;;;;;;5.44;100.00;101701.75;5047618;28;20029;-82
2022/03/27 00:55:49;;;;;;;32.33;19.15;;;;;;;5.40;100.00;101697.31;5048577;28;20083;-82
2022/03/27 00:58:18;;;;;;;34.30;18.80;;;;;;;5.48;100.00;101696.56;5048325;28;20105;-82
2022/03/27 01:01:04;;;;;;;35.47;19.05;;;;;;;5.52;100.00;101693.94;5048066;28;20071;-81
2022/03/27 01:03:33;;;;;;;35.08;18.45;;;;;;;5.55;100.00;101684.28;5045754;28;20072;-82
2022/03/27 01:06:01;;;;;;;36.40;19.30;;;;;;;5.50;100.00;101685.06;5046357;28;20032;-82
2022/03/27 01:11:21;;;;;;;34.70;18.60;;;;;;;5.45;100.00;101687.66;5048305;28;20024;-82
2022/03/27 01:14:04;;;;;;;34.30;18.75;;;;;;;5.44;100.00;101685.88;5045526;28;20056;-82
2022/03/27 01:16:44;;;;;;;32.17;17.88;;;;;;;5.48;100.00;101683.31;5035613;28;20113;-80
2022/03/27 01:19:15;;;;;;;32.80;18.13;;;;;;;5.45;100.00;101677.97;5037966;28;20397;-81
2022/03/27 01:21:53;;;;;;;31.38;17.30;;;;;;;5.48;100.00;101688.63;5039272;28;20029;-82
2022/03/27 01:24:23;;;;;;;28.95;16.73;;;;;;;5.41;100.00;101684.06;5040533;28;20032;-82
2022/03/27 01:26:52;;;;;;;33.47;17.30;;;;;;;5.51;100.00;101681.56;5043984;28;20041;-81
2022/03/27 01:29:17;;;;;;;31.55;17.73;;;;;;;5.45;100.00;101675.31;5044683;28;20144;-82
2022/03/27 01:31:47;;;;;;;34.42;17.95;;;;;;;5.37;100.00;101669.00;5044835;28;20096;-82
2022/03/27 01:34:13;;;;;;;29.05;16.95;;;;;;;5.39;100.00;101676.97;5044488;28;20072;-82
2022/03/27 01:36:43;;;;;;;30.10;16.98;;;;;;;5.46;100.00;101674.44;5046891;28;20026;-82
2022/03/27 01:39:14;;;;;;;28.35;16.83;;;;;;;5.33;100.00;101677.78;5045730;28;20393;-82
2022/03/27 01:41:45;;;;;;;33.00;17.20;;;;;;;5.29;100.00;101675.94;5046837;28;20026;-82
2022/03/27 01:44:20;;;;;;;29.55;17.02;;;;;;;5.29;100.00;101670.66;5044770;28;20044;-82
2022/03/27 01:46:46;;;;;;;27.00;15.85;;;;;;;5.31;100.00;101674.25;5044288;28;20048;-82
2022/03/27 01:49:14;;;;;;;24.48;15.13;;;;;;;5.21;100.00;101679.38;5044062;28;20030;-82
2022/03/27 01:51:44;;;;;;;28.42;16.55;;;;;;;5.15;100.00;101674.00;5037593;28;20038;-81
2022/03/27 01:54:13;;;;;;;30.23;16.23;;;;;;;5.18;100.00;101678.47;5037159;28;20079;-81
2022/03/27 01:56:44;;;;;;;28.25;15.70;;;;;;;5.11;100.00;101677.47;5038605;28;20159;-80
2022/03/27 01:59:10;;;;;;;24.73;15.38;;;;;;;5.08;100.00;101666.81;5042554;28;20026;-82
2022/03/27 02:01:44;;;;;;;27.00;15.52;;;;;;;5.05;100.00;101672.09;5044667;28;20033;-81
2022/03/27 02:04:11;;;;;;;29.23;16.60;;;;;;;4.99;100.00;101668.47;5044956;28;20033;-81
2022/03/27 02:06:39;;;;;;;29.27;15.77;;;;;;;5.03;100.00;101670.28;5047797;28;20044;-82
2022/03/27 02:09:09;;;;;;;28.30;16.42;;;;;;;4.96;100.00;101678.13;5047752;28;20117;-82
2022/03/27 02:11:37;;;;;;;25.88;16.38;;;;;;;4.92;100.00;101671.91;5049107;28;20025;-81
2022/03/27 02:14:10;;;;;;;27.40;16.30;;;;;;;4.90;100.00;101673.59;5047581;28;20028;-82
2022/03/27 02:16:41;;;;;;;;;;;;;;;4.79;100.00;101676.97;5050462;28;20628;-82
2022/03/27 02:19:14;;;;;;;26.70;17.08;;;;;;;4.83;100.00;101671.72;5048726;28;19939;-82
2022/03/27 02:21:41;;;;;;;27.48;16.48;;;;;;;4.79;100.00;101678.75;5049326;28;20383;-81
2022/03/27 02:24:09;;;;;;;28.02;16.70;;;;;;;4.83;100.00;101680.56;5049132;28;20033;-81
2022/03/27 02:26:35;;;;;;;26.90;16.55;;;;;;;4.86;100.00;101682.38;5043447;28;20029;-81
2022/03/27 02:29:10;;;;;;;27.63;16.38;;;;;;;4.84;100.00;101678.81;5038673;28;20022;-81
2022/03/27 02:31:36;;;;;;;31.77;17.58;;;;;;;4.83;100.00;101680.56;5040264;28;20100;-80
2022/03/27 02:34:01;;;;;;;29.15;17.27;;;;;;;4.79;100.00;101669.03;5041599;28;20052;-81
2022/03/27 02:36:29;;;;;;;29.27;17.75;;;;;;;4.74;100.00;101667.19;5043141;28;20044;-81
2022/03/27 02:38:54;;;;;;;29.77;17.92;;;;;;;4.63;100.00;101674.94;5045702;28;20018;-81
2022/03/27 02:41:31;;;;;;;28.02;17.77;;;;;;;4.52;100.00;101675.66;5049331;28;20471;-82
2022/03/27 02:43:58;;;;;;;30.63;18.35;;;;;;;4.54;100.00;101676.56;5050599;28;20032;-82
2022/03/27 02:46:23;;;;;;;31.50;17.95;;;;;;;4.51;100.00;101670.34;5058092;22;20054;-74
2022/03/27 02:48:48;;;;;;;29.75;18.00;;;;;;;4.46;100.00;101678.16;5034538;28;20037;-74
2022/03/27 02:51:14;;;;;;;30.15;18.05;;;;;;;4.38;100.00;101674.53;5035780;28;20028;-74
2022/03/27 02:53:39;;;;;;;30.23;18.33;;;;;;;4.33;100.00;101671.78;5034289;28;20025;-74
2022/03/27 02:56:06;;;;;;;30.77;18.65;;;;;;;4.36;100.00;101678.00;5035719;28;20029;-73
2022/03/27 02:58:32;;;;;;;30.02;17.92;;;;;;;4.39;100.00;101671.00;5035669;28;20032;-74
2022/03/27 03:00:57;;;;;;;32.15;18.75;;;;;;;4.21;100.00;101667.16;5035656;28;20398;-74
2022/03/27 03:03:23;;;;;;;26.75;17.70;;;;;;;4.13;100.00;101675.81;5035756;28;20025;-73
2022/03/27 03:05:49;;;;;;;33.08;18.42;;;;;;;4.06;100.00;101679.22;5035574;28;20033;-75
2022/03/27 03:08:17;;;;;;;30.52;18.05;;;;;;;3.97;100.00;101673.75;5035861;28;20163;-74
2022/03/27 03:10:42;;;;;;;30.20;18.33;;;;;;;3.91;100.00;101666.59;5033719;28;20036;-74
2022/03/27 03:13:08;;;;;;;30.75;19.13;;;;;;;4.04;100.00;101678.31;5034410;28;20394;-74
2022/03/27 03:15:38;;;;;;;32.42;18.92;;;;;;;3.97;100.00;101679.03;5035324;28;20018;-74
2022/03/27 03:18:08;;;;;;;33.03;18.67;;;;;;;3.94;100.00;101674.59;5035813;28;20025;-74
2022/03/27 03:20:34;;;;;;;34.55;20.30;;;;;;;4.06;100.00;101679.22;5035864;28;20028;-74
2022/03/27 03:23:00;;;;;;;37.22;20.20;;;;;;;4.10;100.00;101677.50;5034280;28;20029;-74
2022/03/27 03:25:25;;;;;;;35.47;21.23;;;;;;;4.16;100.00;101682.03;5035223;28;20034;-74
2022/03/27 03:27:51;;;;;;;39.05;22.88;;;;;;;4.23;100.00;101679.53;5035313;28;20498;-74
2022/03/27 03:30:17;;;;;;;37.88;21.67;;;;;;;4.24;100.00;101676.03;5033751;28;20390;-74
2022/03/27 03:32:43;;;;;;;36.28;21.85;;;;;;;4.29;100.00;101676.13;5033784;28;20472;-74
2022/03/27 03:35:09;;;;;;;39.58;20.63;;;;;;;4.33;100.00;101677.94;5035015;28;20386;-74
2022/03/27 03:37:36;;;;;;;38.22;21.63;;;;;;;4.28;100.00;101678.75;5033749;28;20029;-74
2022/03/27 03:40:03;;;;;;;41.97;22.85;;;;;;;4.28;100.00;101679.63;5034935;28;20104;-74
2022/03/27 03:42:28;;;;;;;43.53;23.30;;;;;;;4.32;100.00;101684.13;5034925;28;20453;-74
2022/03/27 03:44:53;;;;;;;43.90;24.10;;;;;;;4.30;100.00;101683.22;5034884;28;20108;-74
2022/03/27 03:47:19;;;;;;;42.92;23.55;;;;;;;4.41;100.00;101674.53;5034793;28;20034;-74
2022/03/27 03:49:45;;;;;;;49.75;24.67;;;;;;;4.33;100.00;101677.94;5033680;28;20068;-74
2022/03/27 03:52:10;;;;;;;54.22;26.25;;;;;;;4.31;100.00;101679.69;5034950;28;20057;-74
2022/03/27 03:54:35;;;;;;;47.42;25.33;;;;;;;4.24;100.00;101676.03;5034676;28;20029;-74
2022/03/27 03:57:03;;;;;;;50.45;24.92;;;;;;;4.29;100.00;101672.56;5033505;28;20018;-74
2022/03/27 03:59:28;;;;;;;45.90;25.17;;;;;;;4.35;100.00;101678.88;5034864;28;20029;-74
2022/03/27 04:01:54;;;;;;;42.85;23.83;;;;;;;4.29;100.00;101676.13;5034648;28;20075;-74
2022/03/27 04:04:19;;;;;;;52.70;25.88;;;;;;;4.40;100.00;101667.50;5034382;28;20079;-74
2022/03/27 04:06:45;;;;;;;51.65;24.75;;;;;;;4.31;100.00;101660.28;5034328;28;20021;-74
2022/03/27 04:09:10;;;;;;;50.58;25.08;;;;;;;4.34;100.00;101663.88;5034360;28;20033;-74
2022/03/27 04:11:35;;;;;;;53.63;25.63;;;;;;;4.30;100.00;101667.34;5034337;28;20471;-74
2022/03/27 04:14:01;;;;;;;49.83;25.40;;;;;;;4.37;100.00;101668.31;5034184;28;20021;-74
2022/03/27 04:16:26;;;;;;;50.72;26.65;;;;;;;4.29;100.00;101660.25;5032994;28;20064;-74
2022/03/27 04:18:51;;;;;;;50.97;25.90;;;;;;;4.40;100.00;101662.22;5033009;28;20025;-74
2022/03/27 04:21:17;;;;;;;53.08;25.50;;;;;;;4.32;100.00;101662.06;5033218;28;20021;-74
2022/03/27 04:23:43;;;;;;;56.10;25.55;;;;;;;4.21;100.00;101661.84;5034042;28;20025;-75
2022/03/27 04:26:08;;;;;;;49.30;24.80;;;;;;;4.32;100.00;101660.31;5034198;28;20021;-74
2022/03/27 04:28:34;;;;;;;53.05;25.92;;;;;;;4.32;100.00;101668.25;5034183;28;20033;-75
2022/03/27 04:30:59;;;;;;;51.17;25.17;;;;;;;4.28;100.00;101663.75;5034297;28;20022;-74
2022/03/27 04:33:24;;;;;;;53.63;26.85;;;;;;;4.17;100.00;101663.56;5034194;28;20025;-74
2022/03/27 04:35:50;;;;;;;50.95;25.50;;;;;;;4.19;100.00;101658.31;5034194;28;20029;-74
2022/03/27 04:38:16;;;;;;;52.25;24.50;;;;;;;4.21;100.00;101667.16;5032888;28;20059;-74
2022/03/27 04:40:42;;;;;;;58.55;26.95;;;;;;;4.15;100.00;101662.63;5033804;28;20025;-75
2022/03/27 04:43:07;;;;;;;56.20;26.48;;;;;;;4.19;100.00;101668.88;5033846;28;20029;-74
2022/03/27 04:45:32;;;;;;;52.78;25.48;;;;;;;4.19;100.00;101666.22;5033433;28;20459;-74
2022/03/27 04:47:58;;;;;;;54.47;26.45;;;;;;;4.26;100.00;101670.78;5033612;28;20036;-74
2022/03/27 04:50:23;;;;;;;55.10;26.52;;;;;;;4.21;100.00;101677.72;5032423;28;20394;-74
2022/03/27 04:52:48;;;;;;;58.53;27.55;;;;;;;4.23;100.00;101676.00;5033477;28;20391;-74
2022/03/27 04:55:14;;;;;;;57.20;27.35;;;;;;;4.22;100.00;101679.50;5033572;28;20379;-74
2022/03/27 04:57:41;;;;;;;57.17;27.60;;;;;;;4.23;100.00;101673.34;5033856;28;20095;-74
2022/03/27 05:00:12;;;;;;;58.95;29.42;;;;;;;4.23;100.00;101679.53;5033523;28;20413;-74
2022/03/27 05:02:38;;;;;;;59.35;28.60;;;;;;;4.30;100.00;101683.22;5032501;28;20075;-74
2022/03/27 05:05:08;;;;;;;55.75;27.40;;;;;;;4.23;100.00;101679.53;5032236;28;20390;-74
2022/03/27 05:07:36;;;;;;;61.50;30.15;;;;;;;4.29;100.00;101685.81;5033763;28;20022;-74
2022/03/27 05:10:03;;;;;;;53.08;27.48;;;;;;;4.23;100.00;101676.00;5032543;28;20029;-75
2022/03/27 05:12:28;;;;;;;60.40;29.58;;;;;;;4.28;100.00;101673.47;5033924;28;20398;-74
2022/03/27 05:14:53;;;;;;;57.15;27.90;;;;;;;4.20;100.00;101678.59;5033599;28;20030;-75
2022/03/27 05:17:19;;;;;;;57.00;28.67;;;;;;;4.03;100.00;101684.44;5033413;28;20025;-75
2022/03/27 05:19:44;;;;;;;64.35;29.73;;;;;;;4.11;100.00;101676.66;5033008;28;20033;-75
2022/03/27 05:22:09;;;;;;;59.00;28.45;;;;;;;4.06;100.00;101673.94;5033354;28;20084;-75
2022/03/27 05:24:34;;;;;;;55.45;28.45;;;;;;;4.12;100.00;101674.03;5031733;28;20510;-75
2022/03/27 05:27:00;;;;;;;59.92;28.65;;;;;;;4.08;100.00;101677.50;5032838;28;20025;-74
2022/03/27 05:29:26;;;;;;;60.78;30.27;;;;;;;4.06;100.00;101680.97;5031631;28;20021;-74
2022/03/27 05:31:55;;;;;;;65.00;30.38;;;;;;;4.07;100.00;101683.63;5031610;28;20040;-75
2022/03/27 05:34:20;;;;;;;62.95;30.63;;;;;;;3.98;100.00;101691.38;5036540;28;20018;-74
2022/03/27 05:36:46;;;;;;;67.72;30.83;;;;;;;4.04;100.00;101685.34;5037056;28;20028;-74
2022/03/27 05:39:12;;;;;;;62.95;30.10;;;;;;;4.02;100.00;101688.81;5036990;28;20049;-74
2022/03/27 05:41:38;;;;;;;66.63;31.50;;;;;;;3.94;100.00;101685.16;5036752;28;20467;-74
2022/03/27 05:44:03;;;;;;;66.50;31.73;;;;;;;4.00;100.00;101690.56;5036684;28;20032;-74
2022/03/27 05:46:29;;;;;;;68.10;32.17;;;;;;;4.10;100.00;101691.63;5036401;28;20025;-74
2022/03/27 05:48:54;;;;;;;66.53;30.98;;;;;;;4.15;100.00;101696.13;5036782;28;20449;-74
2022/03/27 05:51:19;;;;;;;69.95;31.95;;;;;;;4.19;100.00;101697.97;5036593;28;20021;-74
2022/03/27 05:53:45;;;;;;;61.40;30.40;;;;;;;4.12;100.00;101699.59;5036433;28;20025;-74
2022/03/27 05:56:10;;;;;;;62.30;30.42;;;;;;;4.20;100.00;101697.09;5036441;28;20021;-74
2022/03/27 05:58:37;;;;;;;61.00;30.48;;;;;;;4.07;100.00;101693.34;5036444;28;20021;-75
2022/03/27 06:01:03;;;;;;;72.32;31.70;;;;;;;4.13;100.00;101691.69;5035206;28;20108;-75
2022/03/27 06:03:28;;;;;;;64.22;30.65;;;;;;;4.20;100.00;101692.69;5036759;28;20550;-74
2022/03/27 06:05:53;;;;;;;62.65;29.85;;;;;;;4.19;100.00;101690.03;5036342;28;20029;-75
2022/03/27 06:08:19;;;;;;;61.08;28.48;;;;;;;4.17;100.00;101691.75;5036347;28;20493;-75
2022/03/27 06:10:44;;;;;;;63.78;30.08;;;;;;;4.20;100.00;101689.19;5036499;28;20022;-75
2022/03/27 06:13:13;;;;;;;58.50;28.83;;;;;;;4.17;100.00;101675.91;5035062;28;20099;-75
2022/03/27 06:15:38;;;;;;;58.55;28.83;;;;;;;4.13;100.00;101685.50;5036230;28;20021;-75
2022/03/27 06:18:08;;;;;;;65.45;29.20;;;;;;;4.20;100.00;101673.31;5036479;28;20029;-75
2022/03/27 06:20:34;;;;;;;64.30;29.55;;;;;;;4.27;100.00;101677.84;5036512;28;20048;-75
2022/03/27 06:22:59;;;;;;;60.88;29.00;;;;;;;4.26;100.00;101676.06;5036497;28;20483;-75
2022/03/27 06:25:27;;;;;;;67.35;30.20;;;;;;;4.06;100.00;101681.88;5036831;28;20018;-74
2022/03/27 06:27:53;;;;;;;61.10;27.92;;;;;;;4.05;100.00;101682.72;5036585;28;20029;-75
2022/03/27 06:30:20;;;;;;;62.42;28.08;;;;;;;4.07;100.00;101680.97;5034910;28;20024;-74
2022/03/27 06:32:46;;;;;;;59.55;28.40;;;;;;;4.03;100.00;101695.00;5036445;28;20057;-75
2022/03/27 06:35:15;;;;;;;65.63;29.65;;;;;;;4.17;100.00;101691.75;5035617;28;20048;-75
2022/03/27 06:37:40;;;;;;;60.53;28.10;;;;;;;4.17;100.00;101703.22;5034515;28;20490;-74
2022/03/27 06:40:07;;;;;;;60.95;27.27;;;;;;;4.20;100.00;101703.25;5035929;28;20025;-74
2022/03/27 06:42:33;;;;;;;60.95;28.48;;;;;;;4.21;100.00;101706.81;5036066;28;20044;-74
2022/03/27 06:44:58;;;;;;;62.22;28.50;;;;;;;4.24;100.00;101709.53;5033402;28;20475;-75
2022/03/27 06:47:26;;;;;;;62.10;28.02;;;;;;;4.31;100.00;101708.78;5035578;28;20112;-75
2022/03/27 06:49:53;;;;;;;57.72;28.13;;;;;;;4.31;100.00;101700.84;5036164;28;20036;-74
2022/03/27 06:52:19;;;;;;;62.15;28.75;;;;;;;4.34;100.00;101705.28;5036979;28;20104;-75
2022/03/27 06:54:46;;;;;;;65.78;28.20;;;;;;;4.26;100.00;101707.78;5036474;28;20029;-75
2022/03/27 06:57:11;;;;;;;60.72;27.90;;;;;;;4.25;100.00;101706.03;5036010;28;20026;-75
2022/03/27 07:05:06;;;;;;;58.50;26.63;;;;;;;4.54;100.00;101708.31;5036003;28;20117;-75
2022/03/27 07:07:32;;;;;;;53.38;25.77;;;;;;;4.61;100.00;101711.06;5035490;28;20396;-75
2022/03/27 07:09:57;;;;;;;57.80;26.52;;;;;;;4.54;100.00;101712.69;5035921;28;20557;-75
2022/03/27 07:12:24;;;;;;;56.42;26.15;;;;;;;4.50;100.00;101722.34;5035520;28;20456;-75
2022/03/27 07:14:50;;;;;;;50.40;25.30;;;;;;;4.65;100.00;101720.84;5035404;28;20017;-75
2022/03/27 07:17:17;;;;;;;57.30;26.80;;;;;;;4.49;100.00;101728.50;5035443;28;20036;-75
2022/03/27 07:19:43;;;;;;;60.13;25.80;;;;;;;4.58;100.00;101725.13;5034124;28;20021;-74
2022/03/27 07:22:08;;;;;;;55.33;25.70;;;;;;;4.72;100.00;101724.47;5035146;28;20041;-75
2022/03/27 07:24:33;;;;;;;54.78;25.40;;;;;;;4.73;100.00;101713.94;5035094;28;20108;-74
2022/03/27 07:26:59;;;;;;;51.90;25.27;;;;;;;4.71;100.00;101715.66;5035070;28;20028;-75
2022/03/27 07:29:24;;;;;;;59.30;25.92;;;;;;;4.75;100.00;101717.50;5034931;28;20108;-75
2022/03/27 07:31:49;;;;;;;59.08;25.40;;;;;;;4.61;100.00;101713.72;5035070;28;20021;-74
2022/03/27 07:34:16;;;;;;;55.65;25.45;;;;;;;4.79;100.00;101707.88;5035024;28;20024;-74
2022/03/27 07:36:42;;;;;;;59.17;27.35;;;;;;;4.77;100.00;101710.47;5035111;28;20026;-75
2022/03/27 07:39:09;;;;;;;59.03;25.70;;;;;;;4.80;100.00;101707.88;5034828;28;20063;-75
2022/03/27 07:41:34;;;;;;;54.60;25.65;;;;;;;4.66;100.00;101709.41;5034884;28;20036;-74
2022/03/27 07:43:59;;;;;;;54.20;25.50;;;;;;;4.54;100.00;101703.00;5034878;28;20025;-75
2022/03/27 07:46:25;;;;;;;56.95;25.42;;;;;;;4.65;100.00;101702.31;5034693;28;20029;-75
2022/03/27 07:48:50;;;;;;;55.75;25.67;;;;;;;4.72;100.00;101712.13;5033392;28;20025;-75
2022/03/27 07:51:16;;;;;;;57.35;25.92;;;;;;;4.96;100.00;101715.19;5035231;28;20026;-75
2022/03/27 07:53:42;;;;;;;55.80;25.15;;;;;;;5.04;100.00;101724.16;5034396;28;20493;-75
2022/03/27 07:56:07;;;;;;;55.33;24.83;;;;;;;5.03;100.00;101717.94;5034373;28;20465;-75
2022/03/27 07:58:32;;;;;;;55.55;25.83;;;;;;;5.03;100.00;101723.25;5034511;28;20470;-75
2022/03/27 08:00:57;;;;;;;58.33;26.02;;;;;;;5.17;100.00;101725.22;5034495;28;20104;-75
2022/03/27 08:03:23;;;;;;;50.78;24.63;;;;;;;5.15;100.00;101729.63;5034103;28;20040;-74
2022/03/27 08:05:48;;;;;;;52.00;24.80;;;;;;;5.08;100.00;101735.66;5034342;28;20502;-74
2022/03/27 08:08:13;;;;;;;49.50;23.33;;;;;;;5.11;100.00;101736.59;5032755;28;20040;-74
2022/03/27 08:10:38;;;;;;;49.75;24.45;;;;;;;5.06;100.00;101738.28;5034034;28;20033;-74
2022/03/27 08:13:04;;;;;;;51.90;24.35;;;;;;;4.89;100.00;101735.38;5032701;28;20021;-75
2022/03/27 08:15:29;;;;;;;53.08;24.50;;;;;;;4.78;100.00;101736.06;5034364;28;20033;-74
2022/03/27 08:17:54;;;;;;;51.70;23.15;;;;;;;4.66;100.00;101730.56;5033785;28;20025;-74
2022/03/27 08:20:21;;;;;;;49.85;24.70;;;;;;;4.84;100.00;101734.41;5034580;28;20033;-75
2022/03/27 08:22:47;;;;;;;52.88;23.58;;;;;;;4.68;100.00;101731.47;5032967;28;20025;-75
2022/03/27 08:26:55;;;;;;;51.80;23.48;;;;;;;4.63;100.00;101727.84;5033078;28;20542;-74
2022/03/27 08:27:58;;;;;;;53.85;24.77;;;;;;;5.06;100.00;101727.69;5034157;28;20371;-74
2022/03/27 08:30:23;;;;;;;47.15;22.67;;;;;;;5.11;100.00;101731.31;5034141;28;20028;-75
2022/03/27 08:32:49;;;;;;;52.28;23.60;;;;;;;5.20;100.00;101735.00;5034201;28;20025;-75
2022/03/27 08:35:15;;;;;;;46.50;23.17;;;;;;;5.37;100.00;101735.25;5032958;28;20017;-74
2022/03/27 08:37:40;;;;;;;52.53;23.20;;;;;;;5.66;100.00;101740.09;5034047;28;20455;-75
2022/03/27 08:40:06;;;;;;;46.95;22.33;;;;;;;5.73;100.00;101737.50;5033807;28;20029;-75
2022/03/27 08:42:32;;;;;;;47.00;22.00;;;;;;;5.97;100.00;101739.59;5033886;28;20045;-75
2022/03/27 08:44:57;;;;;;;45.50;21.25;;;;;;;6.14;100.00;101745.13;5033440;28;20063;-75
2022/03/27 08:47:26;;;;;;;44.45;20.45;;;;;;;6.19;100.00;101744.28;5045334;22;20041;-82
2022/03/27 08:50:00;;;;;;;47.17;22.55;;;;;;;6.11;100.00;101750.41;5037809;28;20493;-82
2022/03/27 08:52:53;;;;;;;47.72;21.98;;;;;;;6.01;100.00;101746.72;5038191;28;20025;-80
2022/03/27 08:55:23;;;;;;;49.22;22.40;;;;;;;5.77;100.00;101752.59;5043933;28;20028;-82
2022/03/27 08:57:52;;;;;;;46.70;23.27;;;;;;;6.13;100.00;101745.13;5044936;28;20029;-83
2022/03/27 09:00:22;;;;;;;48.08;22.92;;;;;;;6.02;100.00;101755.56;5044764;28;20035;-84
2022/03/27 09:02:48;;;;;;;48.90;22.25;;;;;;;6.16;100.00;101750.44;5043804;28;20022;-82
2022/03/27 09:05:15;;;;;;;49.20;22.70;;;;;;;6.44;100.00;101752.53;5041492;28;20032;-79
2022/03/27 09:07:41;;;;;;;44.00;21.80;;;;;;;6.54;100.00;101743.81;5038330;28;20029;-82
2022/03/27 09:10:13;;;;;;;44.45;22.42;;;;;;;6.69;100.00;101739.53;5035852;28;20056;-82
2022/03/27 09:12:39;;;;;;;46.85;21.77;;;;;;;6.45;100.00;101735.75;5040200;28;20096;-81
2022/03/27 09:15:14;;;;;;;42.40;21.70;;;;;;;6.79;100.00;101738.72;5040726;28;20060;-82
2022/03/27 09:17:54;;;;;;;50.40;21.83;;;;;;;6.66;100.00;101739.47;5038983;28;20054;-80
2022/03/27 09:20:31;;;;;;;45.33;21.80;;;;;;;6.96;100.00;101743.28;5040323;28;20021;-82
2022/03/27 09:23:06;;;;;;;43.20;21.95;;;;;;;7.02;100.00;101743.34;5038689;28;20021;-82
2022/03/27 09:25:53;;;;;;;46.72;21.10;;;;;;;7.55;100.00;101737.50;5038081;28;20036;-82
2022/03/27 09:28:34;;;;;;;40.90;20.42;;;;;;;7.55;100.00;101731.34;5036721;28;20045;-82
2022/03/27 09:31:37;;;;;;;41.95;19.67;;;;;;;8.01;100.00;101724.47;5039548;28;20025;-81
2022/03/27 09:34:23;;;;;;;37.90;19.20;;;;;;;8.52;95.14;101726.38;5038580;28;20029;-82
2022/03/27 09:36:58;;;;;;;;;;;;;;;;;;;;;
2022/03/27 09:39:27;;;;;;;35.15;17.90;;;;;;;8.99;89.05;101726.44;5039294;28;20469;-82
2022/03/27 09:42:03;;;;;;;36.45;18.40;;;;;;;9.21;87.53;101721.09;5038821;28;20021;-82
2022/03/27 09:44:28;;;;;;;36.38;18.05;;;;;;;9.52;90.70;101729.91;5035860;28;20026;-82
2022/03/27 09:47:11;;;;;;;33.63;17.48;;;;;;;9.74;83.29;101732.53;5036382;28;20085;-81
2022/03/27 09:49:43;;;;;;;36.30;18.30;;;;;;;10.08;83.97;101735.06;5037171;28;20029;-83
2022/03/27 09:52:11;;;;;;;34.90;18.48;;;;;;;9.81;85.26;101731.63;5039541;28;20387;-83
2022/03/27 09:55:01;;;;;;;36.78;18.65;;;;;;;9.36;85.89;101729.94;5038328;28;20021;-82
2022/03/27 09:57:50;;;;;;;36.63;17.65;;;;;;;9.97;90.60;101736.91;5038859;28;20025;-82
2022/03/27 10:00:20;;;;;;;33.50;17.60;;;;;;;10.29;81.63;101738.53;5038013;28;20034;-82
2022/03/27 10:02:55;;;;;;;34.20;17.58;;;;;;;10.60;82.17;101727.69;5039091;28;20032;-84
2022/03/27 10:05:30;;;;;;;34.65;17.33;;;;;;;10.23;83.11;101727.88;5038226;28;20459;-83
2022/03/27 10:08:02;;;;;;;34.45;17.77;;;;;;;9.55;82.35;101725.47;5040114;28;20022;-81
2022/03/27 10:10:29;;;;;;;36.65;17.90;;;;;;;9.53;82.48;101727.25;5040167;28;20546;-82
2022/03/27 10:12:58;;;;;;;33.72;16.45;;;;;;;9.11;83.47;101714.88;5040492;28;20422;-81
2022/03/27 10:15:29;;;;;;;36.05;17.60;;;;;;;9.45;86.76;101713.94;5039105;28;20036;-82
2022/03/27 10:18:12;;;;;;;34.20;17.23;;;;;;;10.02;79.04;101713.75;5039727;28;20023;-82
2022/03/27 10:20:38;;;;;;;36.97;18.10;;;;;;;9.71;81.05;101707.66;5039842;28;20036;-82
2022/03/27 10:23:26;;;;;;;32.85;16.92;;;;;;;10.99;78.22;101704.22;5039714;28;20378;-82
2022/03/27 10:26:01;;;;;;;33.65;16.92;;;;;;;10.70;78.61;101711.56;5044150;28;20037;-82
2022/03/27 10:28:31;;;;;;;34.20;17.63;;;;;;;11.11;78.99;101704.09;5041475;28;20055;-83
2022/03/27 10:30:57;;;;;;;30.77;16.02;;;;;;;11.39;75.39;101701.16;5044284;28;20041;-83
2022/03/27 10:33:27;;;;;;;33.28;16.30;;;;;;;10.70;75.14;101706.22;5041746;28;20032;-83
2022/03/27 10:36:08;;;;;;;30.17;16.27;;;;;;;11.44;79.14;101698.41;5043120;28;20044;-82
2022/03/27 10:38:53;;;;;;;27.73;14.50;;;;;;;11.41;69.84;101698.47;5043746;28;20021;-82
2022/03/27 10:41:27;;;;;;;31.75;15.48;;;;;;;10.80;75.74;101697.25;5043945;28;20018;-82
2022/03/27 10:44:12;;;;;;;;;;;;;;;10.88;75.46;101691.84;5042344;28;20021;-83
2022/03/27 10:46:42;;;;;;;31.83;16.25;;;;;;;11.22;73.38;101687.06;5044073;28;20004;-83
2022/03/27 10:49:17;;;;;;;34.75;16.98;;;;;;;11.78;75.33;101685.56;5043821;28;20047;-82
2022/03/27 10:51:46;;;;;;;29.77;15.82;;;;;;;11.82;69.07;101687.31;5043685;28;20029;-82
2022/03/27 10:54:22;;;;;;;29.42;15.77;;;;;;;11.44;71.36;101677.03;5041750;28;20089;-83
2022/03/27 10:57:01;;;;;;;30.73;15.88;;;;;;;11.46;71.75;101677.03;5039418;28;20029;-82
2022/03/27 10:59:30;;;;;;;32.38;17.23;;;;;;;12.35;67.99;101680.34;5038162;28;20063;-82
2022/03/27 11:02:00;;;;;;;29.98;15.50;;;;;;;12.80;67.50;101671.63;5041517;28;20022;-82
2022/03/27 11:04:38;;;;;;;25.73;14.63;;;;;;;12.77;64.51;101673.44;5045934;28;20025;-83
2022/03/27 11:07:16;;;;;;;29.38;14.40;;;;;;;12.67;64.69;101675.41;5050936;22;20056;-78
2022/03/27 11:09:45;;;;;;;27.52;14.30;;;;;;;12.25;62.88;101668.91;5041393;28;20403;-79
2022/03/27 11:12:24;;;;;;;25.73;13.75;;;;;;;13.07;63.88;101669.34;5039987;28;20025;-78
2022/03/27 11:14:52;;;;;;;29.52;14.85;;;;;;;12.17;65.34;101669.00;5038960;28;20020;-79
2022/03/27 11:17:30;;;;;;;26.20;13.45;;;;;;;12.73;67.22;101667.28;5039580;28;20109;-78
2022/03/27 11:19:56;;;;;;;28.42;14.85;;;;;;;12.55;65.10;101666.66;5038429;28;20506;-78
2022/03/27 11:22:44;;;;;;;30.42;14.20;;;;;;;12.97;66.54;101665.06;5035180;28;20030;-77
2022/03/27 11:25:26;;;;;;;24.67;14.35;;;;;;;13.48;62.63;101668.56;5036160;28;20039;-78
2022/03/27 11:28:06;;;;;;;27.45;14.60;;;;;;;13.56;61.22;101659.47;5035040;28;20029;-78
2022/03/27 11:30:34;;;;;;;25.55;14.20;;;;;;;13.60;60.27;101662.13;5036418;28;20048;-81